createdAt,value
2023-04-01T07:27:36.771Z,10.86
2023-04-01T07:30:19.099Z,10.93
2023-04-01T07:33:03.791Z,10.87
2023-04-01T07:35:44.274Z,10.79
2023-04-01T07:38:41.803Z,10.72
2023-04-01T07:41:23.164Z,10.68
2023-04-01T07:44:01.981Z,10.66
2023-04-01T07:46:50.946Z,10.66
2023-04-01T07:49:50.124Z,10.66
2023-04-01T07:52:27.854Z,10.65
2023-04-01T07:55:36.498Z,10.61
2023-04-01T07:58:26.143Z,10.59
2023-04-01T08:01:12.910Z,10.54
2023-04-01T08:03:53.708Z,10.49
2023-04-01T08:06:38.607Z,10.40
2023-04-01T08:09:27.760Z,10.31
2023-04-01T08:12:27.399Z,10.24
2023-04-01T08:15:14.312Z,10.18
2023-04-01T08:18:53.968Z,10.13
2023-04-01T08:21:29.201Z,10.08
2023-04-01T08:24:13.082Z,10.04
2023-04-01T08:26:51.095Z,10.03
2023-04-01T08:29:57.464Z,10.01
2023-04-01T08:32:39.498Z,9.99
2023-04-01T08:35:48.622Z,9.91
2023-04-01T08:38:26.807Z,9.89
2023-04-01T08:41:08.609Z,9.87
2023-04-01T08:44:18.280Z,9.89
2023-04-01T08:47:12.960Z,9.90
2023-04-01T08:50:10.193Z,9.93
2023-04-01T08:53:13.697Z,9.96
2023-04-01T08:56:06.849Z,9.96
2023-04-01T08:58:59.206Z,9.98
2023-04-01T09:02:26.792Z,10.00
2023-04-01T09:05:39.138Z,10.08
2023-04-01T09:08:37.641Z,10.14
2023-04-01T09:11:23.026Z,10.19
2023-04-01T09:14:41.212Z,10.22
2023-04-01T09:18:09.177Z,10.27
2023-04-01T09:20:53.110Z,10.27
2023-04-01T09:24:14.181Z,10.26
2023-04-01T09:27:03.640Z,10.27
2023-04-01T09:30:05.075Z,10.27
2023-04-01T09:32:43.739Z,10.28
2023-04-01T09:35:26.463Z,10.26
2023-04-01T09:38:25.527Z,10.22
2023-04-01T09:40:57.649Z,10.18
2023-04-01T09:44:19.876Z,10.14
2023-04-01T09:47:24.903Z,10.13
2023-04-01T09:50:09.514Z,10.12
2023-04-01T09:52:45.348Z,10.12
2023-04-01T09:56:02.939Z,10.14
2023-04-01T09:58:44.439Z,10.16
2023-04-01T10:01:58.034Z,10.19
2023-04-01T10:05:07.887Z,10.16
2023-04-01T10:07:40.551Z,10.14
2023-04-01T10:10:35.566Z,10.13
2023-04-01T10:13:13.897Z,10.09
2023-04-01T10:15:52.459Z,10.03
2023-04-01T10:18:42.698Z,9.99
2023-04-01T10:21:30.977Z,10.01
2023-04-01T10:24:25.439Z,10.06
2023-04-01T10:27:35.832Z,10.05
2023-04-01T10:30:24.912Z,10.00
2023-04-01T10:33:33.947Z,9.92
2023-04-01T10:36:25.936Z,9.78
2023-04-01T10:39:34.142Z,9.73
2023-04-01T10:42:54.835Z,9.71
2023-04-01T10:46:39.950Z,9.72
2023-04-01T10:49:39.375Z,9.74
2023-04-01T10:52:47.126Z,9.76
2023-04-01T10:56:06.867Z,9.77
2023-04-01T10:59:43.439Z,9.80
2023-04-01T11:02:53.525Z,9.79
2023-04-01T11:06:06.644Z,9.75
2023-04-01T11:09:05.571Z,9.72
2023-04-01T11:12:11.616Z,9.64
2023-04-01T11:15:19.473Z,9.59
2023-04-01T11:18:26.480Z,9.57
2023-04-01T11:21:32.413Z,9.55
2023-04-01T11:24:22.936Z,9.49
2023-04-01T11:27:07.099Z,9.44
2023-04-01T11:30:20.609Z,9.44
2023-04-01T11:33:05.624Z,9.44
2023-04-01T11:36:12.978Z,9.48
2023-04-01T11:39:14.281Z,9.51
2023-04-01T11:42:52.509Z,9.47
2023-04-01T11:45:59.407Z,9.47
2023-04-01T11:48:38.870Z,9.42
2023-04-01T11:51:46.308Z,9.35
2023-04-01T11:54:36.975Z,9.33
2023-04-01T11:57:28.859Z,9.34
2023-04-01T12:00:24.118Z,9.30
2023-04-01T12:03:14.018Z,9.29
2023-04-01T12:06:01.228Z,9.31
2023-04-01T12:09:02.896Z,9.25
2023-04-01T12:12:12.350Z,9.16
2023-04-01T12:14:56.247Z,9.08
2023-04-01T12:18:19.167Z,9.01
2023-04-01T12:20:51.345Z,8.96
2023-04-01T12:23:31.491Z,8.88
2023-04-01T12:26:17.037Z,8.87
2023-04-01T12:28:48.408Z,8.89
2023-04-01T12:31:40.813Z,8.88
2023-04-01T12:34:26.357Z,8.87
2023-04-01T12:37:22.830Z,8.84
2023-04-01T12:39:51.082Z,8.79
2023-04-01T12:42:31.546Z,8.77
2023-04-01T12:45:27.384Z,8.81
2023-04-01T12:48:19.073Z,8.83
2023-04-01T12:51:12.205Z,8.82
2023-04-01T12:54:26.428Z,8.82
2023-04-01T12:57:03.594Z,8.81
2023-04-01T12:59:48.642Z,8.83
2023-04-01T13:02:23.104Z,8.83
2023-04-01T13:05:16.349Z,8.79
2023-04-01T13:08:19.595Z,8.79
2023-04-01T13:11:10.316Z,8.84
2023-04-01T13:13:58.497Z,8.85
2023-04-01T13:16:42.729Z,8.83
2023-04-01T13:19:27.394Z,8.78
2023-04-01T13:22:16.556Z,8.80
2023-04-01T13:25:25.554Z,8.81
2023-04-01T13:28:01.847Z,8.81
2023-04-01T13:30:58.616Z,8.82
2023-04-01T13:33:35.680Z,8.80
2023-04-01T13:36:34.829Z,8.78
2023-04-01T13:39:25.197Z,8.78
2023-04-01T13:42:04.271Z,8.71
2023-04-01T13:44:53.553Z,8.66
2023-04-01T13:47:54.229Z,8.58
2023-04-01T13:50:57.902Z,8.48
2023-04-01T13:53:48.696Z,8.37
2023-04-01T13:56:48.679Z,8.31
2023-04-01T13:59:21.300Z,8.26
2023-04-01T14:02:04.595Z,8.24
2023-04-01T14:04:56.683Z,8.20
2023-04-01T14:07:30.717Z,8.17
2023-04-01T14:10:17.637Z,8.21
2023-04-01T14:13:11.316Z,8.26
2023-04-01T14:16:02.029Z,8.29
2023-04-01T14:19:02.054Z,8.27
2023-04-01T14:21:40.201Z,8.27
2023-04-01T14:24:34.654Z,8.28
2023-04-01T14:27:19.870Z,8.29
2023-04-01T14:30:17.549Z,8.27
2023-04-01T14:33:13.973Z,8.23
2023-04-01T14:35:58.332Z,8.06
2023-04-01T14:38:42.715Z,7.93
2023-04-01T14:41:18.370Z,7.79
2023-04-01T14:44:02.898Z,7.70
2023-04-01T14:47:19.223Z,7.65
2023-04-01T14:53:47.693Z,7.48
2023-04-01T14:56:52.540Z,7.42
2023-04-01T14:59:25.993Z,7.45
2023-04-01T15:02:32.639Z,7.40
2023-04-01T15:05:28.126Z,7.39
2023-04-01T15:08:03.433Z,7.37
2023-04-01T15:10:50.162Z,7.37
2023-04-01T15:13:33.672Z,7.38
2023-04-01T15:16:20.907Z,7.31
2023-04-01T15:19:07.716Z,7.26
2023-04-01T15:21:51.166Z,7.29
2023-04-01T15:24:46.828Z,7.23
2023-04-01T15:27:33.900Z,7.19
2023-04-01T15:30:26.950Z,7.09
2023-04-01T15:33:16.298Z,6.99
2023-04-01T15:35:59.336Z,6.90
2023-04-01T15:38:34.541Z,6.86
2023-04-01T15:41:07.115Z,6.85
2023-04-01T15:43:54.051Z,6.83
2023-04-01T15:46:47.458Z,6.86
2023-04-01T15:49:38.238Z,6.87
2023-04-01T15:52:19.125Z,6.83
2023-04-01T15:55:32.131Z,6.80
2023-04-01T15:58:05.109Z,6.80
2023-04-01T16:00:56.280Z,6.76
2023-04-01T16:03:33.810Z,6.75
2023-04-01T16:06:39.914Z,6.71
2023-04-01T16:09:32.248Z,6.69
2023-04-01T16:12:14.083Z,6.67
2023-04-01T16:15:07.056Z,6.62
2023-04-01T16:17:43.849Z,6.56
2023-04-01T16:20:21.603Z,6.47
2023-04-01T16:23:15.568Z,6.37
2023-04-01T16:26:10.064Z,6.38
2023-04-01T16:28:54.053Z,6.43
2023-04-01T16:31:34.184Z,6.47
2023-04-01T16:34:30.304Z,6.46
2023-04-01T16:37:13.582Z,6.46
2023-04-01T16:40:13.086Z,6.45
2023-04-01T16:42:48.984Z,6.44
2023-04-01T16:45:28.046Z,6.37
2023-04-01T16:48:03.202Z,6.31
2023-04-01T16:51:02.001Z,6.25
2023-04-01T16:53:55.296Z,6.28
2023-04-01T16:56:44.744Z,6.34
2023-04-01T16:59:26.098Z,6.36
2023-04-01T17:02:04.125Z,6.39
2023-04-01T17:04:42.445Z,6.38
2023-04-01T17:07:28.946Z,6.33
2023-04-01T17:10:28.484Z,6.30
2023-04-01T17:12:58.512Z,6.24
2023-04-01T17:16:01.519Z,6.20
2023-04-01T17:18:54.436Z,6.20
2023-04-01T17:21:47.792Z,6.18
2023-04-01T17:24:40.871Z,6.20
2023-04-01T17:27:27.936Z,6.20
2023-04-01T17:30:03.960Z,6.24
2023-04-01T17:33:17.655Z,6.27
2023-04-01T17:36:04.243Z,6.29
2023-04-01T17:38:40.968Z,6.26
2023-04-01T17:41:35.272Z,6.21
2023-04-01T17:44:33.216Z,6.17
2023-04-01T17:47:35.459Z,6.14
2023-04-01T17:50:12.392Z,6.10
2023-04-01T17:53:27.834Z,6.08
2023-04-01T17:56:44.716Z,6.04
2023-04-01T17:59:50.932Z,6.02
2023-04-01T18:02:48.329Z,5.98
2023-04-01T18:05:27.804Z,5.98
2023-04-01T18:08:00.636Z,5.95
2023-04-01T18:10:50.929Z,5.97
2023-04-01T18:13:44.015Z,5.97
2023-04-01T18:16:24.644Z,5.94
2023-04-01T18:19:16.160Z,5.92
2023-04-01T18:22:20.447Z,5.90
2023-04-01T18:24:59.523Z,5.87
2023-04-01T18:27:43.707Z,5.91
2023-04-01T18:30:23.358Z,5.93
2023-04-01T18:33:26.848Z,5.96
2023-04-01T18:36:38.592Z,5.99
2023-04-01T18:39:25.835Z,6.00
2023-04-01T18:42:26.086Z,5.99
2023-04-01T18:45:24.510Z,5.98
2023-04-01T18:48:23.021Z,6.00
2023-04-01T18:51:47.276Z,6.04
2023-04-01T18:54:41.413Z,6.05
2023-04-01T18:57:16.931Z,6.08
2023-04-01T19:00:20.702Z,6.10
2023-04-01T19:03:14.292Z,6.10
2023-04-01T19:05:55.030Z,6.10
2023-04-01T19:08:28.633Z,6.12
2023-04-01T19:11:10.254Z,6.13
2023-04-01T19:13:59.845Z,6.15
2023-04-01T19:16:35.592Z,6.14
2023-04-01T19:19:30.447Z,6.10
2023-04-01T19:22:25.130Z,6.07
2023-04-01T19:25:31.772Z,6.03
2023-04-01T19:28:33.086Z,6.02
2023-04-01T19:31:08.385Z,6.02
2023-04-01T19:33:39.833Z,6.01
2023-04-01T19:36:31.948Z,5.99
2023-04-01T19:39:50.810Z,5.98
2023-04-01T19:42:41.488Z,5.95
2023-04-01T19:45:49.763Z,5.96
2023-04-01T19:48:45.504Z,5.96
2023-04-01T19:51:37.870Z,5.97
2023-04-01T19:54:32.369Z,5.99
2023-04-01T19:57:21.293Z,6.04
2023-04-01T20:00:06.464Z,6.05
2023-04-01T20:02:57.196Z,6.02
2023-04-01T20:06:08.708Z,6.03
2023-04-01T20:09:00.539Z,5.98
2023-04-01T20:11:58.359Z,5.93
2023-04-01T20:14:43.337Z,5.90
2023-04-01T20:17:22.389Z,5.91
2023-04-01T20:19:51.890Z,5.91
2023-04-01T20:22:45.865Z,5.90
2023-04-01T20:25:34.943Z,5.90
2023-04-01T20:28:23.837Z,5.91
2023-04-01T20:31:26.055Z,5.87
2023-04-01T20:34:29.131Z,5.79
2023-04-01T20:37:20.967Z,5.75
2023-04-01T20:40:01.617Z,5.73
2023-04-01T20:42:59.599Z,5.74
2023-04-01T20:46:09.683Z,5.74
2023-04-01T20:48:52.896Z,5.69
2023-04-01T20:51:41.834Z,5.66
2023-04-01T20:54:42.365Z,5.63
2023-04-01T20:57:24.673Z,5.60
2023-04-01T21:00:13.567Z,5.58
2023-04-01T21:03:10.733Z,5.55
2023-04-01T21:05:42.486Z,5.56
2023-04-01T21:08:57.479Z,5.56
2023-04-01T21:11:53.454Z,5.58
2023-04-01T21:14:45.949Z,5.58
2023-04-01T21:17:28.877Z,5.58
2023-04-01T21:20:25.378Z,5.55
2023-04-01T21:23:12.373Z,5.52
2023-04-01T21:26:11.460Z,5.50
2023-04-01T21:29:12.185Z,5.52
2023-04-01T21:31:57.647Z,5.52
2023-04-01T21:34:46.529Z,5.51
2023-04-01T21:37:32.383Z,5.48
2023-04-01T21:40:18.948Z,5.43
2023-04-01T21:42:50.445Z,5.38
2023-04-01T21:45:44.293Z,5.35
2023-04-01T21:48:31.540Z,5.33
2023-04-01T21:51:38.985Z,5.32
2023-04-01T21:54:38.244Z,5.33
2023-04-01T21:57:47.452Z,5.32
2023-04-01T22:00:32.365Z,5.33
2023-04-01T22:03:58.540Z,5.34
2023-04-01T22:06:35.233Z,5.37
2023-04-01T22:09:28.328Z,5.38
2023-04-01T22:12:24.764Z,5.38
2023-04-01T22:15:12.986Z,5.38
2023-04-01T22:18:20.230Z,5.33
2023-04-01T22:21:21.903Z,5.36
2023-04-01T22:24:09.732Z,5.32
2023-04-01T22:27:02.716Z,5.27
2023-04-01T22:29:44.482Z,5.26
2023-04-01T22:32:29.967Z,5.30
2023-04-01T22:35:19.548Z,5.34
2023-04-01T22:38:32.722Z,5.36
2023-04-01T22:41:37.780Z,5.36
2023-04-01T22:44:15.121Z,5.34
2023-04-01T22:47:54.392Z,5.31
2023-04-01T22:50:33.339Z,5.28
2023-04-01T22:53:40.620Z,5.24
2023-04-01T22:56:20.339Z,5.20
2023-04-01T22:59:24.092Z,5.20
2023-04-01T23:02:05.996Z,5.21
2023-04-01T23:04:42.020Z,5.20
2023-04-01T23:07:36.103Z,5.18
2023-04-01T23:10:18.200Z,5.18
2023-04-01T23:12:47.978Z,5.19
2023-04-01T23:15:17.954Z,5.21
2023-04-01T23:17:54.802Z,5.22
2023-04-01T23:20:42.967Z,5.21
2023-04-01T23:23:40.912Z,5.22
2023-04-01T23:26:33.877Z,5.21
2023-04-01T23:29:14.615Z,5.19
2023-04-01T23:31:49.769Z,5.15
2023-04-01T23:34:27.040Z,5.12
2023-04-01T23:36:59.136Z,5.08
2023-04-01T23:39:33.261Z,5.03
2023-04-01T23:42:08.680Z,5.00
2023-04-01T23:44:37.921Z,5.04
2023-04-01T23:47:10.769Z,5.09
2023-04-01T23:50:12.653Z,5.12
2023-04-01T23:52:48.443Z,5.11
2023-04-01T23:55:25.902Z,5.09
2023-04-01T23:58:26.641Z,5.08
